createdAt,value
2017-03-21T00:00:05.359Z,37.6
2017-03-21T00:02:05.074Z,37.6
2017-03-21T00:04:06.828Z,37.6
2017-03-21T00:06:05.913Z,37.6
2017-03-21T00:08:05.811Z,37.6
2017-03-21T00:10:05.075Z,37.6
2017-03-21T00:12:11.269Z,37.6
2017-03-21T00:14:05.975Z,37.6
2017-03-21T00:16:05.763Z,37.6
2017-03-21T00:18:05.331Z,37.6
2017-03-21T00:20:05.014Z,37.6
2017-03-21T00:22:06.198Z,37.6
2017-03-21T00:24:06.223Z,37.6
2017-03-21T00:26:08.482Z,37.6
2017-03-21T00:28:05.249Z,37.6
2017-03-21T00:30:08.864Z,37.6
2017-03-21T00:32:11.122Z,37.6
2017-03-21T00:34:13.107Z,37.6
2017-03-21T00:36:06.311Z,37.6
2017-03-21T00:38:05.744Z,37.6
2017-03-21T00:40:05.621Z,37.6
2017-03-21T00:42:05.672Z,37.6
2017-03-21T00:44:05.454Z,37.6
2017-03-21T00:46:05.748Z,37.6
2017-03-21T00:48:11.418Z,37.6
2017-03-21T00:50:07.687Z,37.6
2017-03-21T00:52:05.397Z,37.6
2017-03-21T00:54:05.467Z,37.6
2017-03-21T00:56:05.203Z,37.6
2017-03-21T00:58:05.962Z,37.6
2017-03-21T01:00:05.448Z,37.6
2017-03-21T01:02:07.653Z,37.6
2017-03-21T01:04:05.887Z,37.6
2017-03-21T01:06:15.345Z,37.6
2017-03-21T01:08:05.047Z,37.6
2017-03-21T01:10:06.975Z,37.6
2017-03-21T01:12:06.022Z,37.6
2017-03-21T01:14:05.798Z,37.6
2017-03-21T01:16:05.529Z,37.6
2017-03-21T01:18:05.622Z,37.6
2017-03-21T01:20:05.861Z,37.6
2017-03-21T01:22:05.631Z,37.6
2017-03-21T01:24:05.684Z,37.6
2017-03-21T01:26:08.734Z,37.6
2017-03-21T01:28:05.920Z,37.6
2017-03-21T01:30:11.725Z,37.4
2017-03-21T01:32:05.434Z,37.6
2017-03-21T01:34:05.221Z,37.6
2017-03-21T01:36:06.288Z,37.6
2017-03-21T01:38:11.606Z,37.6
2017-03-21T01:40:06.735Z,37.7
2017-03-21T01:42:06.721Z,37.6
2017-03-21T01:44:05.539Z,37.7
2017-03-21T01:46:08.909Z,37.7
2017-03-21T01:48:05.756Z,37.7
2017-03-21T01:50:06.110Z,37.6
2017-03-21T01:52:05.987Z,37.6
2017-03-21T01:54:06.727Z,37.6
2017-03-21T01:56:05.453Z,37.7
2017-03-21T01:58:05.437Z,37.7
2017-03-21T02:00:08.033Z,37.4
2017-03-21T02:02:07.840Z,37.6
2017-03-21T02:04:10.586Z,37.4
2017-03-21T02:06:05.531Z,37.4
2017-03-21T02:08:05.229Z,37.6
2017-03-21T02:10:08.480Z,37.6
2017-03-21T02:12:05.602Z,37.6
2017-03-21T02:14:06.327Z,37.7
2017-03-21T02:16:08.219Z,37.4
2017-03-21T02:18:10.690Z,37.5
2017-03-21T02:20:05.381Z,37.7
2017-03-21T02:22:05.086Z,37.7
2017-03-21T02:24:05.967Z,37.5
2017-03-21T02:26:08.191Z,37.4
2017-03-21T02:28:13.504Z,37.4
2017-03-21T02:30:05.612Z,37.7
2017-03-21T02:32:10.420Z,37.4
2017-03-21T02:34:05.155Z,37.4
2017-03-21T02:36:06.154Z,37.4
2017-03-21T02:38:10.593Z,37.7
2017-03-21T02:40:05.338Z,37.7
2017-03-21T02:42:07.979Z,37.5
2017-03-21T02:44:08.239Z,37.7
2017-03-21T02:46:08.759Z,37.5
2017-03-21T02:48:05.588Z,37.5
2017-03-21T02:50:07.787Z,37.4
2017-03-21T02:52:05.506Z,37.4
2017-03-21T02:54:05.500Z,37.4
2017-03-21T02:56:05.284Z,37.5
2017-03-21T02:58:10.574Z,37.5
2017-03-21T03:00:05.701Z,37.4
2017-03-21T03:02:08.093Z,37.5
2017-03-21T03:04:08.341Z,37.4
2017-03-21T03:06:07.701Z,37.5
2017-03-21T03:08:05.406Z,37.5
2017-03-21T03:10:05.102Z,37.4
2017-03-21T03:12:06.003Z,37.4
2017-03-21T03:14:05.736Z,37.7
2017-03-21T03:16:05.440Z,37.5
2017-03-21T03:18:05.507Z,37.5
2017-03-21T03:20:05.195Z,37.5
2017-03-21T03:22:10.960Z,37.5
2017-03-21T03:24:06.373Z,37.5
2017-03-21T03:26:07.864Z,37.4
2017-03-21T03:28:05.090Z,37.4
2017-03-21T03:30:05.956Z,37.5
2017-03-21T03:32:05.613Z,37.4
2017-03-21T03:34:14.183Z,37.5
2017-03-21T03:36:06.195Z,37.5
2017-03-21T03:38:05.911Z,37.4
2017-03-21T03:40:05.654Z,37.5
2017-03-21T03:42:05.815Z,37.6
2017-03-21T03:44:05.032Z,37.5
2017-03-21T03:46:05.344Z,37.5
2017-03-21T03:48:06.742Z,37.5
2017-03-21T03:50:05.855Z,37.7
2017-03-21T03:52:05.551Z,37.7
2017-03-21T03:54:06.924Z,37.6
2017-03-21T03:56:10.726Z,37.8
2017-03-21T03:58:05.940Z,37.6
2017-03-21T04:00:06.586Z,37.5
2017-03-21T04:02:05.367Z,37.5
2017-03-21T04:04:05.113Z,37.8
2017-03-21T04:06:11.232Z,37.5
2017-03-21T04:08:05.926Z,37.8
2017-03-21T04:10:05.605Z,37.8
2017-03-21T04:12:05.610Z,37.5
2017-03-21T04:14:05.327Z,37.6
2017-03-21T04:16:07.552Z,37.6
2017-03-21T04:18:08.081Z,37.8
2017-03-21T04:20:05.835Z,37.6
2017-03-21T04:22:05.785Z,37.5
2017-03-21T04:24:05.606Z,37.8
2017-03-21T04:26:05.853Z,37.5
2017-03-21T04:28:05.572Z,37.5
2017-03-21T04:30:05.498Z,37.5
2017-03-21T04:32:05.546Z,37.5
2017-03-21T04:34:05.623Z,37.5
2017-03-21T04:36:07.349Z,37.5
2017-03-21T04:38:05.372Z,37.5
2017-03-21T04:40:06.035Z,37.6
2017-03-21T04:42:05.933Z,37.5
2017-03-21T04:44:05.316Z,37.6
2017-03-21T04:46:05.408Z,37.5
2017-03-21T04:48:05.141Z,37.5
2017-03-21T04:50:06.884Z,37.6
2017-03-21T04:52:05.653Z,37.5
2017-03-21T04:54:07.293Z,37.5
2017-03-21T04:56:07.674Z,37.5
2017-03-21T04:58:08.428Z,37.5
2017-03-21T05:00:05.476Z,37.5
2017-03-21T05:02:05.262Z,37.5
2017-03-21T05:04:06.020Z,37.5
2017-03-21T05:06:06.002Z,37.5
2017-03-21T05:08:08.524Z,37.5
2017-03-21T05:10:06.436Z,37.5
2017-03-21T05:12:05.882Z,37.5
2017-03-21T05:14:05.586Z,37.5
2017-03-21T05:16:07.598Z,37.5
2017-03-21T05:18:05.918Z,37.5
2017-03-21T05:20:05.213Z,37.5
2017-03-21T05:22:10.324Z,37.5
2017-03-21T05:24:05.228Z,37.5
2017-03-21T05:26:06.198Z,37.5
2017-03-21T05:28:05.913Z,37.5
2017-03-21T05:30:05.444Z,37.5
2017-03-21T05:32:05.124Z,37.5
2017-03-21T05:34:05.832Z,37.5
2017-03-21T05:36:06.575Z,37.6
2017-03-21T05:38:07.948Z,37.4
2017-03-21T05:40:05.631Z,37.4
2017-03-21T05:42:06.115Z,37.4
2017-03-21T05:44:05.914Z,37.5
2017-03-21T05:46:08.271Z,37.5
2017-03-21T05:48:05.281Z,37.5
2017-03-21T05:50:05.517Z,37.6
2017-03-21T05:52:09.432Z,37.5
2017-03-21T05:54:08.798Z,37.6
2017-03-21T05:56:05.507Z,37.6
2017-03-21T05:58:05.382Z,37.6
2017-03-21T06:00:05.258Z,37.4
2017-03-21T06:02:05.977Z,37.7
2017-03-21T06:04:05.678Z,37.7
2017-03-21T06:06:05.724Z,37.6
2017-03-21T06:08:05.480Z,37.7
2017-03-21T06:10:07.744Z,37.7
2017-03-21T06:12:08.105Z,37.7
2017-03-21T06:14:06.151Z,37.7
2017-03-21T06:16:05.900Z,37.7
2017-03-21T06:18:06.141Z,37.8
2017-03-21T06:20:05.854Z,37.8
2017-03-21T06:22:05.794Z,38
2017-03-21T06:24:09.614Z,38.2
2017-03-21T06:26:05.609Z,38.2
2017-03-21T06:28:05.545Z,38.2
2017-03-21T06:30:05.640Z,38.4
2017-03-21T06:32:05.397Z,38.4
2017-03-21T06:34:05.224Z,38.4
2017-03-21T06:36:06.247Z,38.4
2017-03-21T06:38:05.942Z,38.4
2017-03-21T06:40:06.176Z,38.4
2017-03-21T06:42:11.891Z,38.4
2017-03-21T06:44:05.666Z,38.4
2017-03-21T06:46:05.629Z,38.4
2017-03-21T06:48:10.974Z,38.4
2017-03-21T06:50:05.721Z,38.4
2017-03-21T06:52:06.665Z,38.4
2017-03-21T06:54:08.337Z,38.4
2017-03-21T06:56:05.175Z,38.4
2017-03-21T06:58:05.881Z,38.4
2017-03-21T07:00:05.955Z,38.4
2017-03-21T07:02:05.831Z,38.4
2017-03-21T07:04:05.092Z,38.4
2017-03-21T07:06:06.176Z,38.4
2017-03-21T07:08:05.902Z,38.4
2017-03-21T07:10:10.676Z,38.5
2017-03-21T07:12:06.358Z,38.4
2017-03-21T07:14:05.126Z,38.4
2017-03-21T07:16:05.896Z,38.4
2017-03-21T07:18:10.831Z,38.4
2017-03-21T07:20:05.570Z,38.4
2017-03-21T07:22:10.342Z,38.4
2017-03-21T07:24:05.279Z,38.4
2017-03-21T07:26:08.503Z,38.4
2017-03-21T07:28:05.277Z,38.4
2017-03-21T07:30:06.136Z,38.4
2017-03-21T07:32:08.433Z,38.4
2017-03-21T07:34:05.788Z,38.4
2017-03-21T07:36:05.929Z,38.4
2017-03-21T07:38:08.120Z,38.4
2017-03-21T07:40:05.822Z,38.4
2017-03-21T07:42:05.789Z,38.4
2017-03-21T07:44:08.011Z,38.4
2017-03-21T07:46:15.810Z,38.4
2017-03-21T07:48:05.690Z,38.4
2017-03-21T07:50:05.689Z,38.4
2017-03-21T07:52:07.891Z,38.4
2017-03-21T07:54:05.756Z,38.4
2017-03-21T07:56:05.610Z,38.4
2017-03-21T07:58:06.091Z,38.4
2017-03-21T08:00:06.437Z,38.4
2017-03-21T08:02:07.907Z,38.4
2017-03-21T08:04:05.646Z,38.4
2017-03-21T08:06:05.654Z,38.4
2017-03-21T08:08:07.905Z,38.4
2017-03-21T08:10:08.139Z,38.6
2017-03-21T08:12:08.388Z,38.6
2017-03-21T08:14:05.111Z,38.4
2017-03-21T08:16:05.937Z,38.6
2017-03-21T08:18:06.075Z,38.5
2017-03-21T08:20:08.323Z,38.5
2017-03-21T08:22:07.772Z,38.5
2017-03-21T08:24:05.643Z,38.5
2017-03-21T08:26:07.941Z,38.3
2017-03-21T08:28:05.659Z,38.3
2017-03-21T08:30:05.625Z,38.3
2017-03-21T08:32:05.337Z,38.3
2017-03-21T08:34:07.621Z,38.4
2017-03-21T08:36:10.509Z,38.3
2017-03-21T08:38:05.363Z,38.3
2017-03-21T08:40:10.199Z,38.2
2017-03-21T08:42:06.710Z,38.2
2017-03-21T08:44:05.935Z,38.2
2017-03-21T08:46:05.668Z,38.3
2017-03-21T08:48:05.517Z,38.2
2017-03-21T08:50:05.214Z,38.2
2017-03-21T08:52:05.467Z,38.3
2017-03-21T08:54:05.469Z,38.2
2017-03-21T08:56:05.217Z,38.2
2017-03-21T08:58:05.029Z,38.2
2017-03-21T09:00:06.095Z,38.1
2017-03-21T09:02:14.584Z,38.1
2017-03-21T09:04:05.277Z,38.4
2017-03-21T09:06:05.347Z,38.2
2017-03-21T09:08:07.596Z,38.2
2017-03-21T09:10:05.533Z,38.2
2017-03-21T09:12:05.576Z,38.2
2017-03-21T09:14:05.232Z,38.3
2017-03-21T09:16:05.689Z,38.3
2017-03-21T09:18:05.851Z,38.3
2017-03-21T09:20:08.113Z,38
2017-03-21T09:22:05.575Z,38
2017-03-21T09:24:07.972Z,38
2017-03-21T09:26:13.166Z,38.1
2017-03-21T09:28:10.514Z,38.1
2017-03-21T09:30:05.374Z,38
2017-03-21T09:32:05.093Z,38
2017-03-21T09:34:05.790Z,38.1
2017-03-21T09:36:05.842Z,38.1
2017-03-21T09:38:05.639Z,38.1
2017-03-21T09:40:15.542Z,38.2
2017-03-21T09:42:05.761Z,38.4
2017-03-21T09:44:05.445Z,38.3
2017-03-21T09:46:05.085Z,38.1
2017-03-21T09:48:06.169Z,38.1
2017-03-21T09:50:05.868Z,38.1
2017-03-21T09:52:05.562Z,38.1
2017-03-21T09:54:12.941Z,38
2017-03-21T09:56:05.632Z,38.2
2017-03-21T09:58:05.896Z,37.9
2017-03-21T10:00:05.903Z,37.9
2017-03-21T10:02:05.102Z,37.9
2017-03-21T10:04:05.797Z,37.9
2017-03-21T10:06:07.880Z,38
2017-03-21T10:08:05.590Z,38
2017-03-21T10:10:05.350Z,37.9
2017-03-21T10:12:05.203Z,37.9
2017-03-21T10:14:05.679Z,38
2017-03-21T10:16:05.355Z,38
2017-03-21T10:18:05.613Z,38
2017-03-21T10:20:05.875Z,38.2
2017-03-21T10:22:08.142Z,37.9
2017-03-21T10:24:05.643Z,37.9
2017-03-21T10:26:05.428Z,38.1
2017-03-21T10:28:05.636Z,38.1
2017-03-21T10:30:05.587Z,38.1
2017-03-21T10:32:10.323Z,37.8
2017-03-21T10:34:05.610Z,37.9
2017-03-21T10:36:10.534Z,38.1
2017-03-21T10:38:05.762Z,37.9
2017-03-21T10:40:05.400Z,37.9
2017-03-21T10:42:12.937Z,37.8
2017-03-21T10:44:05.809Z,38
2017-03-21T10:46:05.643Z,38.1
2017-03-21T10:48:13.167Z,37.8
2017-03-21T10:50:08.508Z,37.8
2017-03-21T10:52:07.765Z,37.8
2017-03-21T10:54:08.879Z,37.8
2017-03-21T10:56:05.553Z,37.8
2017-03-21T10:58:07.839Z,37.9
2017-03-21T11:00:08.380Z,37.8
2017-03-21T11:02:07.977Z,37.8
2017-03-21T11:04:05.724Z,37.8
2017-03-21T11:06:08.094Z,37.9
2017-03-21T11:08:05.844Z,37.8
2017-03-21T11:10:13.109Z,37.8
2017-03-21T11:12:08.655Z,37.8
2017-03-21T11:14:05.369Z,37.8
2017-03-21T11:16:05.046Z,37.8
2017-03-21T11:18:07.061Z,38.1
2017-03-21T11:20:05.820Z,38
2017-03-21T11:22:05.581Z,38
2017-03-21T11:24:08.203Z,38
2017-03-21T11:26:05.845Z,37.7
2017-03-21T11:28:05.547Z,38
2017-03-21T11:30:05.373Z,37.8
2017-03-21T11:32:05.140Z,38
2017-03-21T11:34:06.000Z,38
2017-03-21T11:36:08.463Z,37.9
2017-03-21T11:38:07.672Z,38
2017-03-21T11:40:07.994Z,38
2017-03-21T11:42:06.121Z,37.7
2017-03-21T11:44:08.041Z,37.9
2017-03-21T11:46:05.316Z,38
2017-03-21T11:48:05.457Z,38.3
2017-03-21T11:50:07.858Z,38.2
2017-03-21T11:52:10.598Z,38.1
2017-03-21T11:54:06.047Z,38.1
2017-03-21T11:56:05.993Z,37.9
2017-03-21T11:58:07.697Z,37.8
2017-03-21T12:00:05.716Z,37.8
2017-03-21T12:02:05.397Z,37.9
2017-03-21T12:04:05.279Z,37.7
2017-03-21T12:06:07.001Z,37.3
2017-03-21T12:08:07.752Z,35.7
2017-03-21T12:10:06.003Z,35.6
2017-03-21T12:12:08.501Z,34.8
2017-03-21T12:14:05.666Z,34.8
2017-03-21T12:16:07.946Z,34.4
2017-03-21T12:18:06.082Z,34.4
2017-03-21T12:20:05.777Z,34.2
2017-03-21T12:22:05.845Z,33.7
2017-03-21T12:24:05.735Z,33.6
2017-03-21T12:26:06.787Z,34.1
2017-03-21T12:28:05.461Z,33.4
2017-03-21T12:30:05.290Z,32.7
2017-03-21T12:32:06.029Z,32.1
2017-03-21T12:34:05.732Z,32.1
2017-03-21T12:36:05.722Z,31.5
2017-03-21T12:38:05.522Z,31.3
2017-03-21T12:40:06.712Z,31.1
2017-03-21T12:42:05.695Z,30.7
2017-03-21T12:44:15.561Z,34.4
2017-03-21T12:46:05.348Z,34.4
2017-03-21T12:48:06.321Z,33.8
2017-03-21T12:50:12.852Z,31.2
2017-03-21T12:52:05.129Z,31.3
2017-03-21T12:54:06.113Z,31.5
2017-03-21T12:56:05.925Z,31.3
2017-03-21T12:58:05.131Z,30.6
2017-03-21T13:00:06.155Z,30
2017-03-21T13:02:05.856Z,29.9
2017-03-21T13:04:05.080Z,30.9
2017-03-21T13:06:05.957Z,31.1
2017-03-21T13:08:05.605Z,31.6
2017-03-21T13:10:06.062Z,32
2017-03-21T13:12:06.080Z,32.2
2017-03-21T13:14:05.796Z,32.6
2017-03-21T13:16:05.506Z,32.6
2017-03-21T13:18:05.718Z,32.8
2017-03-21T13:20:05.407Z,33.3
2017-03-21T13:22:05.120Z,33.3
2017-03-21T13:24:06.982Z,32.9
2017-03-21T13:26:05.455Z,33
2017-03-21T13:28:07.672Z,33.4
2017-03-21T13:30:05.481Z,33.4
2017-03-21T13:32:05.194Z,33.1
2017-03-21T13:34:05.878Z,33.1
2017-03-21T13:36:08.218Z,33
2017-03-21T13:38:10.945Z,32.9
2017-03-21T13:40:05.183Z,32.9
2017-03-21T13:42:06.592Z,33
2017-03-21T13:44:05.279Z,32.7
2017-03-21T13:46:08.521Z,33.3
2017-03-21T13:48:05.485Z,33.3
2017-03-21T13:50:05.185Z,33
2017-03-21T13:52:10.945Z,33.1
2017-03-21T13:54:05.952Z,33.1
2017-03-21T13:56:05.644Z,32.9
2017-03-21T13:58:05.636Z,33.4
2017-03-21T14:00:08.178Z,33.9
2017-03-21T14:02:05.925Z,33.9
2017-03-21T14:04:05.695Z,33.6
2017-03-21T14:06:05.656Z,34
2017-03-21T14:08:05.381Z,34.1
2017-03-21T14:10:05.081Z,33.7
2017-03-21T14:12:06.047Z,33.6
2017-03-21T14:14:05.885Z,33.6
2017-03-21T14:16:05.605Z,33.5
2017-03-21T14:18:05.952Z,33.1
2017-03-21T14:20:05.666Z,33
2017-03-21T14:22:06.191Z,32.8
2017-03-21T14:24:05.552Z,32.6
2017-03-21T14:26:07.775Z,32.6
2017-03-21T14:28:11.106Z,32.3
2017-03-21T14:30:05.511Z,32.3
2017-03-21T14:32:05.214Z,32.2
2017-03-21T14:34:10.123Z,32.4
2017-03-21T14:36:06.218Z,32.4
2017-03-21T14:38:10.973Z,32.6
2017-03-21T14:40:07.761Z,31.1
2017-03-21T14:42:08.408Z,31.2
2017-03-21T14:44:05.150Z,31.2
2017-03-21T14:46:06.003Z,31.5
2017-03-21T14:48:05.849Z,31.6
2017-03-21T14:50:08.089Z,32.8
2017-03-21T14:52:07.860Z,32.5
2017-03-21T14:54:16.573Z,32.5
2017-03-21T14:56:05.991Z,32.5
2017-03-21T14:58:05.725Z,32.5
2017-03-21T15:00:08.141Z,32.7
2017-03-21T15:02:06.137Z,32.7
2017-03-21T15:04:05.344Z,33.2
2017-03-21T15:06:10.403Z,32.8
2017-03-21T15:08:05.672Z,32.8
2017-03-21T15:10:05.555Z,31.8
2017-03-21T15:12:05.500Z,31.6
2017-03-21T15:14:05.711Z,31.7
2017-03-21T15:16:05.400Z,31.9
2017-03-21T15:18:05.666Z,32
2017-03-21T15:20:05.340Z,32.8
2017-03-21T15:22:05.082Z,32
2017-03-21T15:24:06.082Z,32
2017-03-21T15:26:07.761Z,32.8
2017-03-21T15:28:05.493Z,32.8
2017-03-21T15:30:05.569Z,33
2017-03-21T15:32:10.301Z,33
2017-03-21T15:34:06.330Z,32.9
2017-03-21T15:36:10.294Z,33.4
2017-03-21T15:38:10.271Z,33.6
2017-03-21T15:40:05.231Z,33.6
2017-03-21T15:42:11.400Z,33.7
2017-03-21T15:44:10.951Z,34.1
2017-03-21T15:46:05.673Z,34.1
2017-03-21T15:48:05.731Z,34.1
2017-03-21T15:50:09.207Z,34.2
2017-03-21T15:52:10.923Z,34.1
2017-03-21T15:54:05.725Z,34.1
2017-03-21T15:56:06.697Z,34.2
2017-03-21T15:58:05.877Z,34.3
2017-03-21T16:00:08.400Z,34.5
2017-03-21T16:02:08.041Z,34.5
2017-03-21T16:04:05.705Z,34.6
2017-03-21T16:06:16.071Z,34.5
2017-03-21T16:08:05.769Z,34.5
2017-03-21T16:10:08.436Z,34.6
2017-03-21T16:12:05.717Z,34.6
2017-03-21T16:14:05.432Z,34.7
2017-03-21T16:16:10.205Z,34.9
2017-03-21T16:18:13.142Z,34.9
2017-03-21T16:20:05.645Z,34.9
2017-03-21T16:22:05.644Z,34.9
2017-03-21T16:24:10.772Z,35.1
2017-03-21T16:26:07.100Z,35.1
2017-03-21T16:28:06.935Z,35
2017-03-21T16:30:08.920Z,35.1
2017-03-21T16:32:10.413Z,35.4
2017-03-21T16:34:36.899Z,35.3
2017-03-21T16:36:05.525Z,35.2
2017-03-21T16:38:06.038Z,35.4
2017-03-21T16:40:08.183Z,35.5
2017-03-21T16:42:05.916Z,35.5
2017-03-21T16:44:05.663Z,35.3
2017-03-21T16:46:07.898Z,35.6
2017-03-21T16:48:05.699Z,35.4
2017-03-21T16:50:05.358Z,35.4
2017-03-21T16:52:07.587Z,35.5
2017-03-21T16:54:13.115Z,35.6
2017-03-21T16:56:16.021Z,35.6
2017-03-21T16:58:05.451Z,35.6
2017-03-21T17:00:05.455Z,35.5
2017-03-21T17:02:05.267Z,35.7
2017-03-21T17:04:08.492Z,35.7
2017-03-21T17:06:05.515Z,35.7
2017-03-21T17:08:05.230Z,35.8
2017-03-21T17:10:06.069Z,35.8
2017-03-21T17:12:06.104Z,35.8
2017-03-21T17:14:05.795Z,35.8
2017-03-21T17:16:05.510Z,35.9
2017-03-21T17:18:06.707Z,35.9
2017-03-21T17:20:05.409Z,35.8
2017-03-21T17:22:05.159Z,35.9
2017-03-21T17:24:05.898Z,36.1
2017-03-21T17:26:09.043Z,36.1
2017-03-21T17:28:05.768Z,36
2017-03-21T17:30:05.331Z,36
2017-03-21T17:32:04.990Z,35.8
2017-03-21T17:34:05.687Z,35.9
2017-03-21T17:36:08.278Z,36
2017-03-21T17:38:05.534Z,36
2017-03-21T17:40:05.732Z,36
2017-03-21T17:42:05.764Z,36
2017-03-21T17:44:06.201Z,36
2017-03-21T17:46:05.901Z,36.1
2017-03-21T17:48:13.319Z,35.9
2017-03-21T17:50:07.019Z,35.9
2017-03-21T17:52:18.607Z,36.1
2017-03-21T17:54:15.584Z,36.1
2017-03-21T17:56:05.989Z,36.2
2017-03-21T17:58:08.788Z,36.2
2017-03-21T18:00:05.698Z,36.1
2017-03-21T18:02:05.002Z,36.2
2017-03-21T18:04:05.223Z,36.2
2017-03-21T18:06:08.931Z,36.3
2017-03-21T18:08:11.031Z,36.2
2017-03-21T18:10:10.580Z,36.3
2017-03-21T18:12:11.770Z,36.3
2017-03-21T18:14:11.001Z,36.3
2017-03-21T18:16:08.466Z,36.3
2017-03-21T18:18:20.851Z,36.3
2017-03-21T18:20:05.616Z,36.3
2017-03-21T18:22:07.840Z,36.4
2017-03-21T18:24:05.911Z,36.3
2017-03-21T18:26:05.607Z,36.3
2017-03-21T18:28:05.295Z,36.4
2017-03-21T18:30:06.302Z,36.2
2017-03-21T18:32:05.710Z,36.4
2017-03-21T18:34:07.992Z,36.1
2017-03-21T18:36:06.081Z,36.3
2017-03-21T18:38:08.324Z,36.4
2017-03-21T18:40:05.036Z,36.2
2017-03-21T18:42:13.561Z,36.5
2017-03-21T18:44:08.387Z,36.6
2017-03-21T18:46:05.380Z,36.6
2017-03-21T18:48:05.524Z,36.6
2017-03-21T18:50:05.283Z,36.6
2017-03-21T18:52:05.552Z,36.4
2017-03-21T18:54:07.086Z,36.5
2017-03-21T18:56:08.595Z,36.5
2017-03-21T18:58:05.907Z,36.5
2017-03-21T19:00:20.909Z,36.5
2017-03-21T19:02:05.964Z,36.5
2017-03-21T19:04:06.971Z,36.5
2017-03-21T19:06:10.748Z,36.6
2017-03-21T19:08:06.877Z,36.6
2017-03-21T19:10:05.466Z,36.5
2017-03-21T19:12:15.423Z,36.5
2017-03-21T19:14:08.221Z,36.5
2017-03-21T19:16:05.931Z,36.6
2017-03-21T19:18:05.928Z,36.6
2017-03-21T19:20:08.395Z,36.6
2017-03-21T19:22:05.173Z,36.6
2017-03-21T19:24:05.753Z,36.6
2017-03-21T19:26:07.940Z,36.6
2017-03-21T19:28:06.066Z,36.6
2017-03-21T19:30:08.559Z,36.7
2017-03-21T19:32:12.860Z,36.7
2017-03-21T19:34:08.371Z,36.6
2017-03-21T19:36:05.415Z,36.6
2017-03-21T19:38:05.706Z,36.7
2017-03-21T19:40:05.402Z,36.7
2017-03-21T19:42:06.411Z,36.7
2017-03-21T19:44:07.857Z,36.7
2017-03-21T19:46:05.686Z,36.7
2017-03-21T19:48:08.345Z,36.4
2017-03-21T19:50:05.485Z,36.1
2017-03-21T19:52:08.022Z,36.1
2017-03-21T19:54:08.615Z,35.9
2017-03-21T19:56:05.328Z,36.1
2017-03-21T19:58:05.004Z,36.3
2017-03-21T20:00:05.896Z,36.1
2017-03-21T20:02:05.705Z,35.9
2017-03-21T20:04:07.964Z,36.1
2017-03-21T20:06:05.388Z,35.9
2017-03-21T20:08:05.091Z,36.1
2017-03-21T20:10:08.591Z,36.3
2017-03-21T20:12:06.567Z,36.3
2017-03-21T20:14:05.587Z,36.2
2017-03-21T20:16:05.471Z,36.3
2017-03-21T20:18:06.406Z,36.4
2017-03-21T20:20:10.505Z,36.4
2017-03-21T20:22:06.083Z,36.4
2017-03-21T20:24:05.736Z,36.5
2017-03-21T20:27:09.721Z,36.5
2017-03-21T20:28:13.573Z,36.4
2017-03-21T20:30:06.642Z,36.5
2017-03-21T20:32:08.985Z,36.6
2017-03-21T20:34:05.905Z,36.6
2017-03-21T20:36:06.003Z,36.2
2017-03-21T20:38:06.271Z,36.6
2017-03-21T20:40:06.000Z,36.6
2017-03-21T20:42:06.145Z,36.6
2017-03-21T20:44:05.810Z,36.4
2017-03-21T20:46:10.555Z,36.5
2017-03-21T20:48:06.127Z,36.7
2017-03-21T20:50:07.936Z,36.5
2017-03-21T20:52:10.708Z,36.5
2017-03-21T20:54:06.364Z,36.5
2017-03-21T20:56:10.719Z,36.5
2017-03-21T20:58:05.523Z,36.5
2017-03-21T21:00:05.527Z,36.6
2017-03-21T21:02:05.264Z,36.6
2017-03-21T21:04:11.056Z,36.6
2017-03-21T21:06:08.705Z,36.6
2017-03-21T21:08:05.341Z,36.6
2017-03-21T21:10:05.978Z,36.6
2017-03-21T21:12:08.562Z,36.6
2017-03-21T21:14:05.321Z,36.6
2017-03-21T21:16:07.570Z,36.6
2017-03-21T21:18:08.206Z,36.6
2017-03-21T21:20:05.925Z,36.7
2017-03-21T21:22:07.291Z,36.6
2017-03-21T21:24:08.829Z,36.6
2017-03-21T21:26:05.798Z,36.6
2017-03-21T21:28:08.039Z,36.6
2017-03-21T21:30:10.956Z,36.6
2017-03-21T21:32:05.651Z,36.6
2017-03-21T21:34:08.900Z,36.6
2017-03-21T21:36:05.809Z,36.6
2017-03-21T21:38:05.691Z,36.6
2017-03-21T21:40:05.392Z,36.7
2017-03-21T21:42:05.812Z,36.7
2017-03-21T21:44:05.373Z,36.7
2017-03-21T21:46:05.071Z,36.7
2017-03-21T21:48:08.555Z,36.6
2017-03-21T21:50:06.072Z,36.7
2017-03-21T21:52:05.304Z,36.7
2017-03-21T21:54:06.359Z,36.8
2017-03-21T21:56:05.034Z,36.7
2017-03-21T21:58:06.253Z,36.4
2017-03-21T22:00:05.280Z,36.6
2017-03-21T22:02:08.563Z,36.2
2017-03-21T22:04:07.763Z,36.2
2017-03-21T22:06:05.814Z,36.2
2017-03-21T22:08:05.037Z,36.2
2017-03-21T22:10:13.371Z,36
2017-03-21T22:12:08.428Z,35.9
2017-03-21T22:14:05.357Z,35.9
2017-03-21T22:16:05.025Z,35.9
2017-03-21T22:18:06.226Z,35.9
2017-03-21T22:20:05.541Z,35.7
2017-03-21T22:22:05.200Z,35.7
2017-03-21T22:24:06.261Z,35.7
2017-03-21T22:26:05.977Z,35.6
2017-03-21T22:28:05.700Z,35.5
2017-03-21T22:30:11.388Z,35.5
2017-03-21T22:32:05.092Z,35.4
2017-03-21T22:34:05.839Z,35.8
2017-03-21T22:36:08.314Z,36
2017-03-21T22:38:07.524Z,36
2017-03-21T22:40:08.441Z,36
2017-03-21T22:42:05.426Z,36
2017-03-21T22:44:07.612Z,35.9
2017-03-21T22:46:06.333Z,35.9
2017-03-21T22:48:05.938Z,35.8
2017-03-21T22:50:09.822Z,35.9
2017-03-21T22:52:07.666Z,35.9
2017-03-21T22:54:05.649Z,35.9
2017-03-21T22:56:05.375Z,35.9
2017-03-21T22:58:05.098Z,35.7
2017-03-21T23:00:13.580Z,35.7
2017-03-21T23:02:05.493Z,35.8
2017-03-21T23:04:05.831Z,35.9
2017-03-21T23:06:08.343Z,35.8
2017-03-21T23:08:05.053Z,35.8
2017-03-21T23:10:05.824Z,35.7
2017-03-21T23:12:05.288Z,35.8
2017-03-21T23:14:08.473Z,35.8
2017-03-21T23:16:05.196Z,35.8
2017-03-21T23:18:07.943Z,35.8
2017-03-21T23:20:15.351Z,35.8
2017-03-21T23:22:05.039Z,35.8
2017-03-21T23:24:05.868Z,35.8
2017-03-21T23:26:08.144Z,35.7
2017-03-21T23:28:05.834Z,35.7
2017-03-21T23:30:05.831Z,35.7
2017-03-21T23:32:08.043Z,35.4
2017-03-21T23:34:05.928Z,35.6
2017-03-21T23:36:05.982Z,35.5
2017-03-21T23:38:05.672Z,35.7
2017-03-21T23:40:05.379Z,35.5
2017-03-21T23:42:07.739Z,35.5
2017-03-21T23:44:05.408Z,35.5
2017-03-21T23:46:07.572Z,35.5
2017-03-21T23:48:05.571Z,35.5
2017-03-21T23:50:08.043Z,35.5
2017-03-21T23:52:05.732Z,35.5
2017-03-21T23:54:05.614Z,35.4
2017-03-21T23:56:05.317Z,35.5
2017-03-21T23:58:08.107Z,35.4
